Celle, Celle Air Base (ETHC)

NameCelle Air Base
CityCelle
CountryGermany
ICAOETHC
IATAZCN
Altitude39 m
CoordinatesGoogle Map
Live Air TrafficLiveATC.net
METARETHC 131700Z 04007KT 9999 SCT008 OVC060 02/00 Q1023 BLU FCST CANCEL
2018-12-13 17:00:00 Wind: North-Northeast (40°) 3.6 m/s - Visibility: > 10000 m - Temperature: 2 °C - Dew point: 0 °C - Humidity: 86.8% - Pressure: 1023 hPa
Statistics

The table below shows the detailed information of all flights to/from Celle, Celle Air Base (ETHC).